createdAt,value
2022-11-12T00:04:20.487Z,9.73
2022-11-12T00:09:22.150Z,9.75
2022-11-12T00:14:23.852Z,10.20
2022-11-12T00:19:25.537Z,10.00
2022-11-12T00:24:27.230Z,9.27
2022-11-12T00:29:28.954Z,10.35
2022-11-12T00:34:30.638Z,9.65
2022-11-12T00:39:33.558Z,10.45
2022-11-12T00:44:35.254Z,9.13
2022-11-12T00:49:36.921Z,10.00
2022-11-12T00:54:38.593Z,10.55
2022-11-12T00:59:40.279Z,10.55
2022-11-12T01:04:41.974Z,9.95
2022-11-12T01:09:43.657Z,10.77
2022-11-12T01:14:48.171Z,10.77
2022-11-12T01:19:50.495Z,8.93
2022-11-12T01:24:52.161Z,8.87
2022-11-12T01:29:53.818Z,8.70
2022-11-12T01:34:55.564Z,9.00
2022-11-12T01:39:57.318Z,10.70
2022-11-12T01:44:59.011Z,9.10
2022-11-12T01:50:32.319Z,10.38
2022-11-12T01:55:37.101Z,8.30
2022-11-12T02:00:43.279Z,7.70
2022-11-12T02:05:47.949Z,7.70
2022-11-12T02:10:51.086Z,8.43
2022-11-12T02:15:52.982Z,7.40
2022-11-12T02:20:57.488Z,7.03
2022-11-12T02:26:03.264Z,6.95
2022-11-12T02:31:04.981Z,6.60
2022-11-12T02:36:07.092Z,6.88
2022-11-12T02:41:08.790Z,6.63
2022-11-12T02:46:11.449Z,7.05
2022-11-12T02:51:13.687Z,6.73
2022-11-12T02:56:15.440Z,6.00
2022-11-12T03:01:17.252Z,6.23
2022-11-12T03:06:19.125Z,6.40
2022-11-12T03:11:20.898Z,6.22
2022-11-12T03:16:22.565Z,7.20
2022-11-12T03:21:24.221Z,7.00
2022-11-12T03:26:25.941Z,7.43
2022-11-12T03:31:27.629Z,7.65
2022-11-12T03:36:29.451Z,7.60
2022-11-12T03:41:31.137Z,7.80
2022-11-12T03:46:32.809Z,7.75
2022-11-12T03:51:34.521Z,8.20
2022-11-12T03:56:36.276Z,6.93
2022-11-12T04:01:38.167Z,7.00
2022-11-12T04:06:39.965Z,7.82
2022-11-12T04:11:41.700Z,7.80
2022-11-12T04:16:43.398Z,6.68
2022-11-12T04:21:52.717Z,6.68
2022-11-12T04:26:54.418Z,5.97
2022-11-12T04:31:56.081Z,6.90
2022-11-12T04:36:57.769Z,7.18
2022-11-12T04:41:59.864Z,6.70
2022-11-12T04:47:01.527Z,6.53
2022-11-12T04:52:03.416Z,6.40
2022-11-12T04:57:05.095Z,7.20
2022-11-12T05:02:06.808Z,7.25
2022-11-12T05:07:08.856Z,7.63
2022-11-12T05:12:10.921Z,7.30
2022-11-12T05:17:12.618Z,7.10
2022-11-12T05:22:40.305Z,6.55
2022-11-12T05:27:35.963Z,6.72
2022-11-12T05:32:37.647Z,7.45
2022-11-12T05:37:39.430Z,6.72
2022-11-12T05:42:41.122Z,7.23
2022-11-12T05:47:42.812Z,6.30
2022-11-12T05:52:45.634Z,6.28
2022-11-12T05:57:47.283Z,5.72
2022-11-12T06:02:49.053Z,6.67
2022-11-12T06:07:51.006Z,6.03
2022-11-12T06:12:52.686Z,6.35
2022-11-12T06:17:54.802Z,6.90
2022-11-12T06:22:56.885Z,6.35
2022-11-12T06:27:58.586Z,6.90
2022-11-12T06:33:00.259Z,6.78
2022-11-12T06:38:01.982Z,6.13
2022-11-12T06:43:03.695Z,6.07
2022-11-12T06:48:05.436Z,6.27
2022-11-12T06:53:07.112Z,6.32
2022-11-12T06:58:08.818Z,6.45
2022-11-12T07:03:13.539Z,5.78
2022-11-12T07:08:15.187Z,6.00
2022-11-12T07:13:16.856Z,6.57
2022-11-12T07:18:18.555Z,6.68
2022-11-12T07:23:20.267Z,6.22
2022-11-12T07:28:21.965Z,6.55
2022-11-12T07:33:23.721Z,6.13
2022-11-12T07:38:26.539Z,6.70
2022-11-12T07:43:36.290Z,6.70
2022-11-12T07:48:39.094Z,6.65
2022-11-12T07:53:41.538Z,6.40
2022-11-12T07:58:44.058Z,6.28
2022-11-12T08:03:45.763Z,7.03
2022-11-12T08:08:47.804Z,6.63
2022-11-12T08:13:50.341Z,6.68
2022-11-12T08:18:52.039Z,6.70
2022-11-12T08:23:53.713Z,5.88
2022-11-12T08:28:55.360Z,6.05
2022-11-12T08:33:57.076Z,6.83
2022-11-12T08:38:58.770Z,6.40
2022-11-12T08:44:04.236Z,6.88
2022-11-12T08:49:09.915Z,7.32
2022-11-12T08:54:11.600Z,8.90
2022-11-12T08:59:13.254Z,9.68
2022-11-12T09:04:14.947Z,7.55
2022-11-12T09:09:16.613Z,7.55
2022-11-12T09:14:18.325Z,7.47
2022-11-12T09:19:20.052Z,7.90
2022-11-12T09:24:21.672Z,9.73
2022-11-12T09:29:23.529Z,9.73
2022-11-12T09:34:25.575Z,10.98
2022-11-12T09:39:27.261Z,10.85
2022-11-12T09:44:36.535Z,12.40
2022-11-12T09:49:45.164Z,12.10
2022-11-12T09:54:55.289Z,10.85
2022-11-12T09:59:57.383Z,11.40
2022-11-12T10:05:20.519Z,11.90
2022-11-12T10:10:53.178Z,9.82
2022-11-12T10:16:21.355Z,9.23
2022-11-12T10:21:22.999Z,8.97
2022-11-12T10:26:26.414Z,9.10
2022-11-12T10:31:28.291Z,8.25
2022-11-12T10:36:35.931Z,8.30
2022-11-12T10:41:37.766Z,7.93
2022-11-12T10:46:39.933Z,8.30
2022-11-12T10:51:41.806Z,7.23
2022-11-12T10:56:43.492Z,7.38
2022-11-12T11:01:53.760Z,8.02
2022-11-12T11:07:01.598Z,6.73
2022-11-12T11:12:03.639Z,6.88
2022-11-12T11:17:06.113Z,7.07
2022-11-12T11:22:36.808Z,7.40
2022-11-12T11:27:45.418Z,7.68
2022-11-12T11:33:22.342Z,6.50
2022-11-12T11:38:38.968Z,6.35
2022-11-12T11:43:46.614Z,6.97
2022-11-12T11:49:03.315Z,6.03
2022-11-12T11:54:26.317Z,5.90
2022-11-12T11:59:41.656Z,6.63
2022-11-12T12:05:09.655Z,6.70
2022-11-12T12:11:08.266Z,6.33
2022-11-12T12:16:35.428Z,5.90
2022-11-12T12:21:44.069Z,6.40
2022-11-12T12:26:50.204Z,6.57
2022-11-12T12:32:00.105Z,7.20
2022-11-12T12:37:33.323Z,7.35
2022-11-12T12:43:00.801Z,6.80
2022-11-12T12:48:05.758Z,7.43
2022-11-12T12:53:27.222Z,7.82
2022-11-12T12:58:30.401Z,7.63
2022-11-12T13:03:44.562Z,7.13
2022-11-12T13:08:46.858Z,7.78
2022-11-12T13:13:48.615Z,6.70
2022-11-12T13:18:50.254Z,7.68
2022-11-12T13:23:57.049Z,7.85
2022-11-12T13:29:29.352Z,7.03
2022-11-12T13:34:33.410Z,7.18
2022-11-12T13:39:35.883Z,7.55
2022-11-12T13:44:37.690Z,6.97
2022-11-12T13:49:39.629Z,8.30
2022-11-12T13:54:42.212Z,7.20
2022-11-12T13:59:46.404Z,7.70
2022-11-12T14:04:48.517Z,6.60
2022-11-12T14:10:20.849Z,7.57
2022-11-12T14:15:32.496Z,7.25
2022-11-12T14:20:39.624Z,6.90
2022-11-12T14:25:51.520Z,7.03
2022-11-12T14:30:53.231Z,7.03
2022-11-12T14:36:01.945Z,6.25
2022-11-12T14:41:15.864Z,7.47
2022-11-12T14:46:27.602Z,6.47
2022-11-12T14:51:32.145Z,5.93
2022-11-12T14:56:39.288Z,6.30
2022-11-12T15:02:29.438Z,6.40
2022-11-12T15:07:32.036Z,6.20
2022-11-12T15:12:34.631Z,5.60
2022-11-12T15:17:37.481Z,6.10
2022-11-12T15:22:39.327Z,6.50
2022-11-12T15:27:42.965Z,5.90
2022-11-12T15:32:48.188Z,6.65
2022-11-12T15:37:50.031Z,5.68
2022-11-12T15:42:52.458Z,5.83
2022-11-12T15:51:17.354Z,6.65
2022-11-12T15:56:20.745Z,6.70
2022-11-12T16:01:22.640Z,6.33
2022-11-12T16:06:24.360Z,5.83
2022-11-12T16:11:26.127Z,6.97
2022-11-12T16:16:28.205Z,7.07
2022-11-12T16:21:29.940Z,6.93
2022-11-12T16:26:34.165Z,7.63
2022-11-12T16:31:35.921Z,7.93
2022-11-12T16:36:39.396Z,9.17
2022-11-12T16:41:41.121Z,10.85
2022-11-12T16:46:43.732Z,10.70
2022-11-12T16:51:46.222Z,9.57
2022-11-12T17:00:42.395Z,13.07
2022-11-12T17:05:44.778Z,12.45
2022-11-12T17:10:46.533Z,12.23
2022-11-12T17:15:48.310Z,10.80
2022-11-12T17:20:51.489Z,12.18
2022-11-12T17:26:04.463Z,11.70
2022-11-12T17:31:10.598Z,11.27
2022-11-12T17:36:14.941Z,11.57
2022-11-12T17:41:16.613Z,12.23
2022-11-12T17:46:18.337Z,13.57
2022-11-12T17:51:22.141Z,12.52
2022-11-12T17:56:24.483Z,15.63
2022-11-12T18:01:28.509Z,15.20
2022-11-12T18:06:33.848Z,14.37
2022-11-12T18:11:50.483Z,12.98
2022-11-12T18:16:52.240Z,13.23
2022-11-12T18:21:53.919Z,14.43
2022-11-12T18:26:56.193Z,13.53
2022-11-12T18:31:58.607Z,13.55
2022-11-12T18:37:00.284Z,13.63
2022-11-12T18:42:02.127Z,14.00
2022-11-12T18:47:03.848Z,12.23
2022-11-12T18:52:05.646Z,12.00
2022-11-12T18:57:07.463Z,12.32
2022-11-12T19:02:12.126Z,11.65
2022-11-12T19:07:13.891Z,9.77
2022-11-12T19:12:15.675Z,10.17
2022-11-12T19:17:17.353Z,10.00
2022-11-12T19:22:19.102Z,10.55
2022-11-12T19:27:20.828Z,9.07
2022-11-12T19:32:22.495Z,10.68
2022-11-12T19:37:33.631Z,11.40
2022-11-12T19:42:36.171Z,12.20
2022-11-12T19:47:37.873Z,11.43
2022-11-12T19:52:39.587Z,12.25
2022-11-12T19:57:44.174Z,13.13
2022-11-12T20:02:45.941Z,11.95
2022-11-12T20:07:48.421Z,12.27
2022-11-12T20:12:50.141Z,12.13
2022-11-12T20:17:51.910Z,12.60
2022-11-12T20:22:53.591Z,11.82
2022-11-12T20:27:55.346Z,11.70
2022-11-12T20:32:57.059Z,12.88
2022-11-12T20:37:58.856Z,13.13
2022-11-12T20:43:00.722Z,13.75
2022-11-12T20:48:02.470Z,14.95
2022-11-12T20:53:04.191Z,15.63
2022-11-12T20:58:05.969Z,15.10
2022-11-12T21:03:07.785Z,18.15
2022-11-12T21:08:09.512Z,15.93
2022-11-12T21:13:11.237Z,15.52
2022-11-12T21:18:12.988Z,14.93
2022-11-12T21:23:14.801Z,15.07
2022-11-12T21:28:16.483Z,14.35
2022-11-12T21:33:18.238Z,15.10
2022-11-12T21:38:19.909Z,13.82
2022-11-12T21:43:21.709Z,15.20
2022-11-12T21:48:23.626Z,14.05
2022-11-12T21:53:25.279Z,13.48
2022-11-12T21:58:29.162Z,13.60
2022-11-12T22:03:31.442Z,11.73
2022-11-12T22:08:33.410Z,12.07
2022-11-12T22:13:35.540Z,11.85
2022-11-12T22:18:37.691Z,12.50
2022-11-12T22:23:39.738Z,11.70
2022-11-12T22:28:42.153Z,13.57
2022-11-12T22:33:43.945Z,13.93
2022-11-12T22:38:46.977Z,14.45
2022-11-12T22:43:49.983Z,15.83
2022-11-12T22:48:51.768Z,13.38
2022-11-12T22:54:04.791Z,12.73
2022-11-12T22:59:06.446Z,13.43
2022-11-12T23:04:08.585Z,13.68
2022-11-12T23:09:14.642Z,14.32
2022-11-12T23:14:16.306Z,15.27
2022-11-12T23:19:18.022Z,15.17
2022-11-12T23:24:20.180Z,13.73
2022-11-12T23:29:22.067Z,15.15
2022-11-12T23:34:23.875Z,13.75
2022-11-12T23:39:25.554Z,14.23
2022-11-12T23:44:27.352Z,13.90
2022-11-12T23:49:29.060Z,15.37
2022-11-12T23:54:30.769Z,14.75
2022-11-12T23:59:32.486Z,13.45
